sensor_id;sensor_type;location;lat;lon;timestamp;pressure;altitude;pressure_sealevel;temperature;humidity
42887;BME280;29032;56.028;92.904;2023-04-08T00:00:04;99737.50;;;-4.76;27.04
42887;BME280;29032;56.028;92.904;2023-04-08T00:05:13;99751.66;;;-4.92;26.75
42887;BME280;29032;56.028;92.904;2023-04-08T00:10:15;99757.56;;;-4.74;26.63
42887;BME280;29032;56.028;92.904;2023-04-08T00:15:17;99764.63;;;-4.80;26.55
42887;BME280;29032;56.028;92.904;2023-04-08T00:20:22;99763.38;;;-4.75;26.43
42887;BME280;29032;56.028;92.904;2023-04-08T00:25:24;99777.84;;;-4.85;25.78
42887;BME280;29032;56.028;92.904;2023-04-08T00:30:26;99774.06;;;-4.92;26.08
42887;BME280;29032;56.028;92.904;2023-04-08T00:35:29;99772.44;;;-4.85;26.21
42887;BME280;29032;56.028;92.904;2023-04-08T00:40:32;99776.44;;;-4.97;26.13
42887;BME280;29032;56.028;92.904;2023-04-08T00:51:14;99776.16;;;-4.76;27.51
42887;BME280;29032;56.028;92.904;2023-04-08T00:56:16;99773.66;;;-4.36;25.93
42887;BME280;29032;56.028;92.904;2023-04-08T01:01:43;99767.38;;;-4.56;26.27
42887;BME280;29032;56.028;92.904;2023-04-08T01:07:10;99777.34;;;-4.77;26.86
42887;BME280;29032;56.028;92.904;2023-04-08T01:12:20;99775.25;;;-4.66;27.04
42887;BME280;29032;56.028;92.904;2023-04-08T01:17:23;99776.94;;;-4.48;26.31
42887;BME280;29032;56.028;92.904;2023-04-08T01:22:35;99791.06;;;-3.87;26.49
42887;BME280;29032;56.028;92.904;2023-04-08T01:27:59;99785.56;;;-4.30;25.58
42887;BME280;29032;56.028;92.904;2023-04-08T01:33:01;99796.22;;;-5.00;25.66
42887;BME280;29032;56.028;92.904;2023-04-08T01:38:06;99791.41;;;-4.89;26.14
42887;BME280;29032;56.028;92.904;2023-04-08T01:43:12;99783.22;;;-4.82;27.11
42887;BME280;29032;56.028;92.904;2023-04-08T01:48:34;99793.63;;;-4.53;26.88
42887;BME280;29032;56.028;92.904;2023-04-08T01:53:39;99784.72;;;-4.27;26.32
42887;BME280;29032;56.028;92.904;2023-04-08T01:58:47;99791.81;;;-4.10;25.79
42887;BME280;29032;56.028;92.904;2023-04-08T02:03:50;99790.00;;;-4.16;26.49
42887;BME280;29032;56.028;92.904;2023-04-08T02:08:53;99787.47;;;-3.80;27.22
42887;BME280;29032;56.028;92.904;2023-04-08T02:13:58;99786.66;;;-3.37;25.77
42887;BME280;29032;56.028;92.904;2023-04-08T02:19:04;99786.09;;;-3.09;26.23
42887;BME280;29032;56.028;92.904;2023-04-08T02:29:33;99775.88;;;-3.61;25.29
42887;BME280;29032;56.028;92.904;2023-04-08T02:34:39;99783.50;;;-3.99;26.36
42887;BME280;29032;56.028;92.904;2023-04-08T02:39:41;99783.59;;;-4.02;25.19
42887;BME280;29032;56.028;92.904;2023-04-08T02:44:47;99780.50;;;-4.05;25.67
42887;BME280;29032;56.028;92.904;2023-04-08T02:49:49;99779.19;;;-3.73;26.20
42887;BME280;29032;56.028;92.904;2023-04-08T02:54:51;99778.94;;;-3.59;26.29
42887;BME280;29032;56.028;92.904;2023-04-08T02:59:54;99780.75;;;-3.32;25.74
42887;BME280;29032;56.028;92.904;2023-04-08T03:04:57;99777.63;;;-3.11;24.74
42887;BME280;29032;56.028;92.904;2023-04-08T03:09:59;99772.81;;;-3.43;25.17
42887;BME280;29032;56.028;92.904;2023-04-08T03:15:21;99780.75;;;-3.32;26.07
42887;BME280;29032;56.028;92.904;2023-04-08T03:20:23;99768.06;;;-2.99;24.84
42887;BME280;29032;56.028;92.904;2023-04-08T03:25:25;99774.97;;;-2.78;24.60
42887;BME280;29032;56.028;92.904;2023-04-08T03:30:50;99771.38;;;-2.55;25.16
42887;BME280;29032;56.028;92.904;2023-04-08T03:35:53;99775.19;;;-2.20;24.47
42887;BME280;29032;56.028;92.904;2023-04-08T03:41:13;99773.75;;;-1.92;24.18
42887;BME280;29032;56.028;92.904;2023-04-08T03:46:16;99773.38;;;-1.78;25.14
42887;BME280;29032;56.028;92.904;2023-04-08T03:51:18;99772.97;;;-1.76;24.64
42887;BME280;29032;56.028;92.904;2023-04-08T03:56:20;99764.69;;;-1.73;24.58
42887;BME280;29032;56.028;92.904;2023-04-08T04:01:42;99767.53;;;-1.76;24.95
42887;BME280;29032;56.028;92.904;2023-04-08T04:06:44;99755.00;;;-2.19;23.88
42887;BME280;29032;56.028;92.904;2023-04-08T04:11:46;99748.53;;;-2.74;25.58
42887;BME280;29032;56.028;92.904;2023-04-08T04:16:50;99743.25;;;-2.49;26.38
42887;BME280;29032;56.028;92.904;2023-04-08T04:21:52;99741.91;;;-2.08;25.85
42887;BME280;29032;56.028;92.904;2023-04-08T04:26:54;99726.91;;;-1.84;25.61
42887;BME280;29032;56.028;92.904;2023-04-08T04:31:57;99733.09;;;-1.54;25.24
42887;BME280;29032;56.028;92.904;2023-04-08T04:36:59;99731.16;;;-1.53;23.99
42887;BME280;29032;56.028;92.904;2023-04-08T04:42:01;99722.41;;;-1.61;23.77
42887;BME280;29032;56.028;92.904;2023-04-08T04:47:05;99710.78;;;-1.62;24.08
42887;BME280;29032;56.028;92.904;2023-04-08T04:52:07;99718.78;;;-1.42;24.44
42887;BME280;29032;56.028;92.904;2023-04-08T04:57:09;99706.41;;;-1.17;24.59
42887;BME280;29032;56.028;92.904;2023-04-08T05:02:12;99707.19;;;-0.91;23.41
42887;BME280;29032;56.028;92.904;2023-04-08T05:07:14;99695.63;;;-1.08;24.15
42887;BME280;29032;56.028;92.904;2023-04-08T05:12:16;99693.22;;;-1.19;24.94
42887;BME280;29032;56.028;92.904;2023-04-08T05:17:20;99683.75;;;-1.02;22.81
42887;BME280;29032;56.028;92.904;2023-04-08T05:22:22;99685.06;;;-1.19;23.04
42887;BME280;29032;56.028;92.904;2023-04-08T05:27:42;99658.38;;;-0.98;24.33
42887;BME280;29032;56.028;92.904;2023-04-08T05:32:46;99653.03;;;-0.29;22.85
42887;BME280;29032;56.028;92.904;2023-04-08T05:37:48;99653.31;;;-0.14;24.31
42887;BME280;29032;56.028;92.904;2023-04-08T05:42:50;99642.78;;;0.41;23.11
42887;BME280;29032;56.028;92.904;2023-04-08T05:47:53;99637.16;;;0.66;21.95
42887;BME280;29032;56.028;92.904;2023-04-08T05:52:55;99619.22;;;0.96;22.05
42887;BME280;29032;56.028;92.904;2023-04-08T06:03:46;99604.13;;;1.32;23.11
42887;BME280;29032;56.028;92.904;2023-04-08T06:08:48;99600.81;;;1.73;20.95
42887;BME280;29032;56.028;92.904;2023-04-08T06:24:33;99562.81;;;2.54;22.34
42887;BME280;29032;56.028;92.904;2023-04-08T06:29:35;99551.00;;;2.72;24.97
42887;BME280;29032;56.028;92.904;2023-04-08T06:34:38;99549.81;;;2.97;22.34
42887;BME280;29032;56.028;92.904;2023-04-08T06:39:40;99542.34;;;2.65;23.94
42887;BME280;29032;56.028;92.904;2023-04-08T06:44:42;99527.81;;;2.82;24.76
42887;BME280;29032;56.028;92.904;2023-04-08T06:55:07;99504.91;;;3.19;22.86
42887;BME280;29032;56.028;92.904;2023-04-08T07:00:10;99496.94;;;3.21;24.04
42887;BME280;29032;56.028;92.904;2023-04-08T07:05:14;99486.25;;;3.47;23.35
42887;BME280;29032;56.028;92.904;2023-04-08T07:16:13;99464.94;;;3.86;24.88
42887;BME280;29032;56.028;92.904;2023-04-08T07:21:16;99462.41;;;3.97;25.18
42887;BME280;29032;56.028;92.904;2023-04-08T07:26:37;99442.41;;;4.11;23.20
42887;BME280;29032;56.028;92.904;2023-04-08T07:31:39;99432.97;;;3.38;23.65
42887;BME280;29032;56.028;92.904;2023-04-08T07:36:42;99427.97;;;3.37;24.74
42887;BME280;29032;56.028;92.904;2023-04-08T07:41:44;99413.75;;;3.83;25.47
42887;BME280;29032;56.028;92.904;2023-04-08T07:46:46;99412.38;;;4.22;24.41
42887;BME280;29032;56.028;92.904;2023-04-08T07:51:50;99403.47;;;4.48;24.38
42887;BME280;29032;56.028;92.904;2023-04-08T07:56:52;99394.13;;;4.40;22.10
42887;BME280;29032;56.028;92.904;2023-04-08T08:01:54;99384.88;;;4.02;24.48
42887;BME280;29032;56.028;92.904;2023-04-08T08:06:57;99369.44;;;3.90;22.98
42887;BME280;29032;56.028;92.904;2023-04-08T08:11:59;99374.72;;;3.58;23.58
42887;BME280;29032;56.028;92.904;2023-04-08T08:17:03;99364.84;;;3.81;23.84
42887;BME280;29032;56.028;92.904;2023-04-08T08:22:06;99364.53;;;4.14;26.04
42887;BME280;29032;56.028;92.904;2023-04-08T08:37:51;99335.34;;;4.52;22.65
42887;BME280;29032;56.028;92.904;2023-04-08T08:42:53;99324.03;;;4.70;21.82
42887;BME280;29032;56.028;92.904;2023-04-08T08:47:55;99322.91;;;4.83;23.08
42887;BME280;29032;56.028;92.904;2023-04-08T08:58:19;99288.84;;;4.95;23.47
42887;BME280;29032;56.028;92.904;2023-04-08T09:03:22;99287.66;;;5.33;23.52
42887;BME280;29032;56.028;92.904;2023-04-08T09:08:28;99278.97;;;5.77;21.25
42887;BME280;29032;56.028;92.904;2023-04-08T09:13:34;99268.25;;;5.85;22.78
42887;BME280;29032;56.028;92.904;2023-04-08T09:18:56;99265.84;;;6.04;23.03
42887;BME280;29032;56.028;92.904;2023-04-08T09:24:26;99244.72;;;6.43;22.95
42887;BME280;29032;56.028;92.904;2023-04-08T09:29:28;99234.94;;;6.42;22.36
42887;BME280;29032;56.028;92.904;2023-04-08T09:34:48;99231.75;;;6.89;23.35
42887;BME280;29032;56.028;92.904;2023-04-08T09:39:52;99222.97;;;6.62;21.46
42887;BME280;29032;56.028;92.904;2023-04-08T09:44:54;99216.19;;;6.80;22.71
42887;BME280;29032;56.028;92.904;2023-04-08T09:50:01;99213.66;;;8.30;22.63
42887;BME280;29032;56.028;92.904;2023-04-08T09:55:08;99205.78;;;10.33;19.56
42887;BME280;29032;56.028;92.904;2023-04-08T10:00:12;99196.28;;;12.23;17.93
42887;BME280;29032;56.028;92.904;2023-04-08T10:05:36;99185.34;;;14.51;19.32
42887;BME280;29032;56.028;92.904;2023-04-08T10:10:40;99175.13;;;15.99;15.72
42887;BME280;29032;56.028;92.904;2023-04-08T10:15:43;99172.28;;;13.87;16.39
42887;BME280;29032;56.028;92.904;2023-04-08T10:20:47;99158.47;;;11.41;18.04
42887;BME280;29032;56.028;92.904;2023-04-08T10:26:29;99151.72;;;9.64;19.79
42887;BME280;29032;56.028;92.904;2023-04-08T10:31:39;99136.66;;;8.04;20.66
42887;BME280;29032;56.028;92.904;2023-04-08T10:36:52;99128.91;;;7.22;20.32
42887;BME280;29032;56.028;92.904;2023-04-08T10:41:56;99120.19;;;6.84;21.79
42887;BME280;29032;56.028;92.904;2023-04-08T10:46:58;99109.91;;;6.34;19.83
42887;BME280;29032;56.028;92.904;2023-04-08T10:52:09;99095.22;;;5.72;22.46
42887;BME280;29032;56.028;92.904;2023-04-08T10:57:13;99089.38;;;5.42;21.53
42887;BME280;29032;56.028;92.904;2023-04-08T11:02:15;99079.97;;;5.17;23.00
42887;BME280;29032;56.028;92.904;2023-04-08T11:07:19;99062.97;;;5.13;22.32
42887;BME280;29032;56.028;92.904;2023-04-08T11:12:41;99059.16;;;4.99;22.36
42887;BME280;29032;56.028;92.904;2023-04-08T11:17:44;99053.91;;;4.70;24.74
42887;BME280;29032;56.028;92.904;2023-04-08T11:22:46;99047.28;;;4.88;25.05
42887;BME280;29032;56.028;92.904;2023-04-08T11:27:50;99040.38;;;4.98;22.90
42887;BME280;29032;56.028;92.904;2023-04-08T11:32:53;99038.91;;;5.02;23.01
42887;BME280;29032;56.028;92.904;2023-04-08T11:37:55;99032.75;;;4.82;23.88
42887;BME280;29032;56.028;92.904;2023-04-08T11:42:59;99025.75;;;4.81;23.18
42887;BME280;29032;56.028;92.904;2023-04-08T11:48:10;99014.47;;;4.73;22.57
42887;BME280;29032;56.028;92.904;2023-04-08T11:53:16;99021.44;;;4.68;23.55
42887;BME280;29032;56.028;92.904;2023-04-08T11:58:19;99007.38;;;4.61;24.85
42887;BME280;29032;56.028;92.904;2023-04-08T12:03:52;99003.50;;;4.78;24.32
42887;BME280;29032;56.028;92.904;2023-04-08T12:08:55;99002.94;;;4.69;25.83
42887;BME280;29032;56.028;92.904;2023-04-08T12:19:18;98994.72;;;4.74;24.94
42887;BME280;29032;56.028;92.904;2023-04-08T12:24:56;98986.53;;;4.80;24.48
42887;BME280;29032;56.028;92.904;2023-04-08T12:30:19;98985.41;;;4.61;24.74
42887;BME280;29032;56.028;92.904;2023-04-08T12:40:41;98985.56;;;4.46;26.34
42887;BME280;29032;56.028;92.904;2023-04-08T12:45:45;98980.06;;;4.46;24.15
42887;BME280;29032;56.028;92.904;2023-04-08T12:50:47;98973.97;;;4.31;23.79
42887;BME280;29032;56.028;92.904;2023-04-08T12:55:49;98972.38;;;4.18;25.51
42887;BME280;29032;56.028;92.904;2023-04-08T13:00:52;98977.91;;;4.24;25.29
42887;BME280;29032;56.028;92.904;2023-04-08T13:05:55;98968.94;;;4.23;24.59
42887;BME280;29032;56.028;92.904;2023-04-08T13:10:56;98969.09;;;4.14;25.23
42887;BME280;29032;56.028;92.904;2023-04-08T13:21:20;98979.31;;;4.08;27.31
42887;BME280;29032;56.028;92.904;2023-04-08T13:26:22;98984.25;;;4.04;26.93
42887;BME280;29032;56.028;92.904;2023-04-08T13:36:46;98982.38;;;3.90;27.87
42887;BME280;29032;56.028;92.904;2023-04-08T13:41:48;98981.69;;;3.95;26.51
42887;BME280;29032;56.028;92.904;2023-04-08T13:47:10;98988.75;;;4.07;23.96
42887;BME280;29032;56.028;92.904;2023-04-08T13:52:12;98982.22;;;3.99;23.29
42887;BME280;29032;56.028;92.904;2023-04-08T13:57:14;98992.34;;;3.87;22.14
42887;BME280;29032;56.028;92.904;2023-04-08T14:02:36;98979.00;;;4.01;23.90
42887;BME280;29032;56.028;92.904;2023-04-08T14:07:38;98979.38;;;3.88;22.19
42887;BME280;29032;56.028;92.904;2023-04-08T14:12:40;98983.31;;;3.81;22.60
42887;BME280;29032;56.028;92.904;2023-04-08T14:17:44;98976.00;;;3.73;22.60
42887;BME280;29032;56.028;92.904;2023-04-08T14:23:04;98975.66;;;3.65;22.66
42887;BME280;29032;56.028;92.904;2023-04-08T14:28:06;98979.22;;;3.45;22.78
42887;BME280;29032;56.028;92.904;2023-04-08T14:38:30;98982.00;;;3.25;22.83
42887;BME280;29032;56.028;92.904;2023-04-08T14:43:32;98988.56;;;3.12;23.00
42887;BME280;29032;56.028;92.904;2023-04-08T14:48:35;98988.31;;;3.10;23.61
42887;BME280;29032;56.028;92.904;2023-04-08T14:53:56;98995.16;;;3.00;23.80
42887;BME280;29032;56.028;92.904;2023-04-08T14:58:58;98983.91;;;2.78;23.60
42887;BME280;29032;56.028;92.904;2023-04-08T15:04:01;98989.72;;;2.85;24.64
42887;BME280;29032;56.028;92.904;2023-04-08T15:09:03;98978.44;;;2.98;24.10
42887;BME280;29032;56.028;92.904;2023-04-08T15:14:05;98984.88;;;2.95;23.87
42887;BME280;29032;56.028;92.904;2023-04-08T15:24:29;98982.94;;;2.61;24.25
42887;BME280;29032;56.028;92.904;2023-04-08T15:29:31;98972.97;;;2.43;24.73
42887;BME280;29032;56.028;92.904;2023-04-08T15:40:14;98954.97;;;2.21;25.25
42887;BME280;29032;56.028;92.904;2023-04-08T15:45:16;98964.59;;;2.17;24.90
42887;BME280;29032;56.028;92.904;2023-04-08T15:50:20;98965.66;;;2.19;24.61
42887;BME280;29032;56.028;92.904;2023-04-08T15:55:40;98958.28;;;2.25;24.39
42887;BME280;29032;56.028;92.904;2023-04-08T16:00:42;98958.38;;;2.16;24.15
42887;BME280;29032;56.028;92.904;2023-04-08T16:05:46;98960.81;;;2.29;23.94
42887;BME280;29032;56.028;92.904;2023-04-08T16:11:06;98959.47;;;2.39;24.12
42887;BME280;29032;56.028;92.904;2023-04-08T16:16:08;98944.38;;;2.29;23.80
42887;BME280;29032;56.028;92.904;2023-04-08T16:21:14;98948.63;;;2.30;23.37
42887;BME280;29032;56.028;92.904;2023-04-08T16:26:16;98944.22;;;2.18;23.53
42887;BME280;29032;56.028;92.904;2023-04-08T16:31:18;98942.91;;;2.13;23.66
42887;BME280;29032;56.028;92.904;2023-04-08T16:36:21;98937.16;;;2.11;22.99
42887;BME280;29032;56.028;92.904;2023-04-08T16:41:23;98937.47;;;1.98;23.61
42887;BME280;29032;56.028;92.904;2023-04-08T16:46:25;98936.88;;;1.94;23.17
42887;BME280;29032;56.028;92.904;2023-04-08T16:57:08;98929.13;;;2.08;23.43
42887;BME280;29032;56.028;92.904;2023-04-08T17:02:10;98937.06;;;2.06;23.17
42887;BME280;29032;56.028;92.904;2023-04-08T17:07:30;98935.97;;;1.97;23.29
42887;BME280;29032;56.028;92.904;2023-04-08T17:12:33;98923.78;;;1.98;23.63
42887;BME280;29032;56.028;92.904;2023-04-08T17:17:35;98936.63;;;1.92;23.19
42887;BME280;29032;56.028;92.904;2023-04-08T17:22:55;98930.88;;;1.75;23.17
42887;BME280;29032;56.028;92.904;2023-04-08T17:27:59;98933.53;;;1.70;23.18
42887;BME280;29032;56.028;92.904;2023-04-08T17:33:01;98934.28;;;1.56;23.12
42887;BME280;29032;56.028;92.904;2023-04-08T17:38:21;98918.25;;;1.48;23.46
42887;BME280;29032;56.028;92.904;2023-04-08T17:43:43;98917.75;;;1.35;23.91
42887;BME280;29032;56.028;92.904;2023-04-08T17:48:45;98913.69;;;1.16;23.79
42887;BME280;29032;56.028;92.904;2023-04-08T17:53:47;98905.75;;;1.18;23.80
42887;BME280;29032;56.028;92.904;2023-04-08T17:58:51;98894.28;;;1.14;23.32
42887;BME280;29032;56.028;92.904;2023-04-08T18:03:53;98890.84;;;1.04;23.79
42887;BME280;29032;56.028;92.904;2023-04-08T18:08:55;98888.31;;;1.01;23.97
42887;BME280;29032;56.028;92.904;2023-04-08T18:13:58;98885.00;;;0.97;24.26
42887;BME280;29032;56.028;92.904;2023-04-08T18:19:00;98876.13;;;0.87;24.13
42887;BME280;29032;56.028;92.904;2023-04-08T18:24:02;98873.50;;;0.92;24.15
42887;BME280;29032;56.028;92.904;2023-04-08T18:29:06;98874.66;;;1.01;24.18
42887;BME280;29032;56.028;92.904;2023-04-08T18:34:26;98860.72;;;0.99;24.58
42887;BME280;29032;56.028;92.904;2023-04-08T18:39:28;98863.94;;;1.12;24.93
42887;BME280;29032;56.028;92.904;2023-04-08T18:44:32;98870.16;;;1.27;24.84
42887;BME280;29032;56.028;92.904;2023-04-08T18:49:34;98862.63;;;1.37;24.90
42887;BME280;29032;56.028;92.904;2023-04-08T18:54:37;98844.50;;;1.39;24.95
42887;BME280;29032;56.028;92.904;2023-04-08T18:59:40;98854.31;;;1.31;25.38
42887;BME280;29032;56.028;92.904;2023-04-08T19:04:42;98846.22;;;1.22;25.75
42887;BME280;29032;56.028;92.904;2023-04-08T19:09:44;98846.59;;;1.15;26.44
42887;BME280;29032;56.028;92.904;2023-04-08T19:14:48;98842.53;;;1.25;26.37
42887;BME280;29032;56.028;92.904;2023-04-08T19:19:50;98832.75;;;1.33;26.08
42887;BME280;29032;56.028;92.904;2023-04-08T19:24:52;98839.34;;;1.41;25.99
42887;BME280;29032;56.028;92.904;2023-04-08T19:29:55;98829.69;;;1.46;26.37
42887;BME280;29032;56.028;92.904;2023-04-08T19:34:57;98834.78;;;1.38;27.23
42887;BME280;29032;56.028;92.904;2023-04-08T19:39:59;98826.69;;;1.29;28.04
42887;BME280;29032;56.028;92.904;2023-04-08T19:45:04;98828.59;;;1.23;27.66
42887;BME280;29032;56.028;92.904;2023-04-08T19:50:07;98824.16;;;1.11;28.45
42887;BME280;29032;56.028;92.904;2023-04-08T19:55:09;98825.09;;;1.08;27.59
42887;BME280;29032;56.028;92.904;2023-04-08T20:00:31;98817.75;;;0.84;26.31
42887;BME280;29032;56.028;92.904;2023-04-08T20:05:33;98813.44;;;0.54;25.68
42887;BME280;29032;56.028;92.904;2023-04-08T20:10:35;98813.97;;;0.19;25.97
42887;BME280;29032;56.028;92.904;2023-04-08T20:15:39;98811.09;;;-0.01;25.94
42887;BME280;29032;56.028;92.904;2023-04-08T20:20:41;98811.81;;;-0.25;26.23
42887;BME280;29032;56.028;92.904;2023-04-08T20:25:43;98821.28;;;-0.11;26.05
42887;BME280;29032;56.028;92.904;2023-04-08T20:30:46;98818.75;;;-0.14;26.35
42887;BME280;29032;56.028;92.904;2023-04-08T20:35:48;98822.97;;;-0.13;26.25
42887;BME280;29032;56.028;92.904;2023-04-08T20:40:50;98807.09;;;-0.15;26.59
42887;BME280;29032;56.028;92.904;2023-04-08T20:45:54;98813.25;;;-0.05;26.95
42887;BME280;29032;56.028;92.904;2023-04-08T20:50:56;98809.22;;;-0.19;27.04
42887;BME280;29032;56.028;92.904;2023-04-08T21:01:19;98800.97;;;-0.34;28.43
42887;BME280;29032;56.028;92.904;2023-04-08T21:06:22;98764.28;;;-0.57;29.27
42887;BME280;29032;56.028;92.904;2023-04-08T21:11:24;98809.53;;;-0.59;29.35
42887;BME280;29032;56.028;92.904;2023-04-08T21:16:28;98802.63;;;-0.69;30.08
42887;BME280;29032;56.028;92.904;2023-04-08T21:21:48;98778.56;;;-0.80;30.46
42887;BME280;29032;56.028;92.904;2023-04-08T21:26:50;98778.38;;;-0.67;30.29
42887;BME280;29032;56.028;92.904;2023-04-08T21:31:54;98779.88;;;-0.66;30.85
42887;BME280;29032;56.028;92.904;2023-04-08T21:36:56;98766.59;;;-0.64;31.07
42887;BME280;29032;56.028;92.904;2023-04-08T21:41:58;98760.81;;;-0.66;31.42
42887;BME280;29032;56.028;92.904;2023-04-08T21:47:01;98750.22;;;-0.64;31.51
42887;BME280;29032;56.028;92.904;2023-04-08T21:52:04;98741.94;;;-0.70;31.88
42887;BME280;29032;56.028;92.904;2023-04-08T21:57:06;98753.31;;;-0.81;32.41
42887;BME280;29032;56.028;92.904;2023-04-08T22:02:09;98752.22;;;-0.74;32.44
42887;BME280;29032;56.028;92.904;2023-04-08T22:07:12;98737.03;;;-0.66;33.03
42887;BME280;29032;56.028;92.904;2023-04-08T22:12:14;98735.28;;;-0.45;32.99
42887;BME280;29032;56.028;92.904;2023-04-08T22:17:17;98728.31;;;-0.46;33.20
42887;BME280;29032;56.028;92.904;2023-04-08T22:22:19;98720.22;;;-0.55;33.85
42887;BME280;29032;56.028;92.904;2023-04-08T22:27:21;98723.47;;;-0.75;34.62
42887;BME280;29032;56.028;92.904;2023-04-08T22:32:25;98715.97;;;-0.89;35.61
42887;BME280;29032;56.028;92.904;2023-04-08T22:37:27;98699.41;;;-1.10;36.47
42887;BME280;29032;56.028;92.904;2023-04-08T22:42:29;98696.53;;;-1.06;36.23
42887;BME280;29032;56.028;92.904;2023-04-08T22:47:32;98696.63;;;-1.01;36.71
42887;BME280;29032;56.028;92.904;2023-04-08T22:52:34;98683.47;;;-1.02;37.21
42887;BME280;29032;56.028;92.904;2023-04-08T22:57:36;98676.19;;;-0.96;36.87
42887;BME280;29032;56.028;92.904;2023-04-08T23:02:40;98683.66;;;-1.06;38.26
42887;BME280;29032;56.028;92.904;2023-04-08T23:07:43;98684.44;;;-1.14;38.96
42887;BME280;29032;56.028;92.904;2023-04-08T23:12:45;98679.53;;;-1.01;39.49
42887;BME280;29032;56.028;92.904;2023-04-08T23:17:48;98678.63;;;-0.98;39.39
42887;BME280;29032;56.028;92.904;2023-04-08T23:22:50;98669.56;;;-1.04;40.03
42887;BME280;29032;56.028;92.904;2023-04-08T23:27:52;98665.63;;;-1.03;40.11
42887;BME280;29032;56.028;92.904;2023-04-08T23:33:14;98664.97;;;-0.89;40.21
42887;BME280;29032;56.028;92.904;2023-04-08T23:38:16;98656.81;;;-0.89;40.90
42887;BME280;29032;56.028;92.904;2023-04-08T23:43:18;98652.22;;;-0.83;41.14
42887;BME280;29032;56.028;92.904;2023-04-08T23:48:22;98653.88;;;-0.76;41.53
42887;BME280;29032;56.028;92.904;2023-04-08T23:53:24;98653.09;;;-0.77;42.15
42887;BME280;29032;56.028;92.904;2023-04-08T23:58:26;98652.47;;;-0.71;42.83
